Time;durP1;ratioP1;P1;durP2;ratioP2;P2;SDS_P1;SDS_P2;PMS_P1;PMS_P2;Temp;Humidity;BMP_temperature;BMP_pressure;BME280_temperature;BME280_humidity;BME280_pressure;Samples;Min_cycle;Max_cycle;Signal;HPM_P1;HPM_P2
2023/05/29 12:33:35;;;;;;;3.75;1.00;;;20.00;97.10;;;;;;4277029;23;20708;-68
2023/05/29 12:36:07;;;;;;;3.58;0.95;;;19.90;97.20;;;;;;4986997;28;20203;-68
2023/05/29 12:38:36;;;;;;;3.78;1.00;;;19.80;97.90;;;;;;4991108;28;20209;-68
2023/05/29 12:41:03;;;;;;;3.50;0.70;;;19.80;98.10;;;;;;4993499;28;20233;-68
2023/05/29 12:43:29;;;;;;;3.13;1.10;;;20.00;98.00;;;;;;4982801;28;20203;-68
2023/05/29 12:45:57;;;;;;;3.40;0.90;;;20.10;98.50;;;;;;4974683;28;20246;-67
2023/05/29 12:48:28;;;;;;;2.40;0.98;;;20.50;97.70;;;;;;4974593;28;20606;-68
2023/05/29 12:50:57;;;;;;;4.03;0.98;;;20.50;96.70;;;;;;4981971;28;20597;-69
2023/05/29 12:53:30;;;;;;;4.28;1.27;;;20.50;97.00;;;;;;4993883;28;20522;-68
2023/05/29 12:55:57;;;;;;;5.78;1.02;;;20.70;97.30;;;;;;4980196;28;20284;-69
2023/05/29 12:58:24;;;;;;;3.58;0.85;;;21.00;97.00;;;;;;4974074;28;20249;-70
2023/05/29 13:00:55;;;;;;;4.70;1.20;;;21.10;96.70;;;;;;4981540;28;20233;-69
2023/05/29 13:03:23;;;;;;;3.47;1.15;;;20.90;97.00;;;;;;4993711;28;20570;-68
2023/05/29 13:05:50;;;;;;;3.88;1.15;;;20.90;96.60;;;;;;4993338;28;20292;-71
2023/05/29 13:08:18;;;;;;;5.03;1.10;;;21.00;96.70;;;;;;4993797;28;20222;-68
2023/05/29 13:10:45;;;;;;;5.40;1.15;;;20.80;96.70;;;;;;4993898;28;20592;-67
2023/05/29 13:13:12;;;;;;;2.92;1.20;;;20.70;96.70;;;;;;4993535;28;20207;-66
2023/05/29 13:15:40;;;;;;;2.42;0.85;;;20.50;97.20;;;;;;4993640;28;20213;-67
2023/05/29 13:18:07;;;;;;;3.97;1.00;;;20.60;97.10;;;;;;4993404;28;20210;-70
2023/05/29 13:20:34;;;;;;;5.05;1.55;;;20.80;97.60;;;;;;4993420;28;20696;-67
2023/05/29 13:23:01;;;;;;;2.13;1.00;;;21.10;96.80;;;;;;4993709;28;20206;-68
2023/05/29 13:25:29;;;;;;;3.63;0.85;;;21.10;97.10;;;;;;4993405;28;20238;-69
2023/05/29 13:27:56;;;;;;;1.63;0.70;;;21.00;97.20;;;;;;4993434;28;20208;-67
2023/05/29 13:30:23;;;;;;;2.47;1.00;;;21.20;97.20;;;;;;4993915;28;20226;-72
2023/05/29 13:32:51;;;;;;;3.40;0.90;;;21.40;96.90;;;;;;4993397;28;20309;-68
2023/05/29 13:35:18;;;;;;;5.80;1.05;;;21.50;97.00;;;;;;4993431;28;20233;-70
2023/05/29 13:37:45;;;;;;;3.70;0.82;;;21.50;97.60;;;;;;4993294;28;20699;-67
2023/05/29 13:40:13;;;;;;;2.55;0.88;;;21.30;97.30;;;;;;4995844;28;20230;-68
2023/05/29 13:42:41;;;;;;;2.45;1.20;;;21.00;97.20;;;;;;4997620;28;20580;-68
2023/05/29 13:45:09;;;;;;;3.88;1.17;;;20.90;97.80;;;;;;4997471;28;20240;-70
2023/05/29 13:47:36;;;;;;;6.35;1.15;;;21.10;97.00;;;;;;4997340;28;20264;-68
2023/05/29 13:50:05;;;;;;;4.15;1.20;;;21.00;98.00;;;;;;4997372;28;20232;-68
2023/05/29 13:52:32;;;;;;;3.13;1.10;;;21.20;97.60;;;;;;4997391;28;20297;-67
2023/05/29 13:55:01;;;;;;;3.65;1.02;;;21.20;97.20;;;;;;4997322;28;20214;-68
2023/05/29 13:57:29;;;;;;;5.03;1.00;;;21.20;96.90;;;;;;4997342;28;20671;-68
2023/05/29 13:59:57;;;;;;;5.93;1.08;;;21.30;96.70;;;;;;4997109;28;20230;-67
2023/05/29 14:02:25;;;;;;;5.15;0.93;;;21.20;96.60;;;;;;4997532;28;20214;-68
2023/05/29 14:04:51;;;;;;;3.75;0.90;;;21.20;97.20;;;;;;4997208;28;20365;-67
2023/05/29 14:07:18;;;;;;;2.17;1.13;;;21.20;97.20;;;;;;4996933;28;20210;-71
2023/05/29 14:09:45;;;;;;;2.95;1.10;;;21.20;97.10;;;;;;4996978;28;20588;-70
2023/05/29 14:12:12;;;;;;;2.95;0.90;;;21.10;97.40;;;;;;4996721;28;20297;-71
2023/05/29 14:14:39;;;;;;;3.10;1.40;;;21.00;96.80;;;;;;4996845;28;20202;-71
2023/05/29 14:17:08;;;;;;;5.57;1.00;;;21.20;97.30;;;;;;4996919;28;20719;-68
2023/05/29 14:19:35;;;;;;;2.65;0.90;;;21.20;96.80;;;;;;4996760;28;20285;-69
2023/05/29 14:22:02;;;;;;;4.30;1.25;;;21.00;96.90;;;;;;4996930;28;20704;-70
2023/05/29 14:24:29;;;;;;;3.78;1.25;;;21.10;97.00;;;;;;4996870;28;20235;-71
2023/05/29 14:26:56;;;;;;;2.00;0.77;;;21.20;97.00;;;;;;4999175;28;20212;-67
2023/05/29 14:29:23;;;;;;;3.33;1.10;;;21.30;97.00;;;;;;4999405;28;20238;-69
2023/05/29 14:31:49;;;;;;;2.42;1.15;;;21.30;96.30;;;;;;5000320;28;20206;-69
2023/05/29 14:34:17;;;;;;;2.95;0.93;;;21.40;96.80;;;;;;4998824;28;20218;-71
2023/05/29 14:36:45;;;;;;;2.42;1.00;;;21.10;96.50;;;;;;4996462;28;20210;-71
2023/05/29 14:39:12;;;;;;;2.63;1.05;;;21.00;97.10;;;;;;4996700;28;20206;-71
2023/05/29 14:41:39;;;;;;;5.85;1.05;;;21.10;97.00;;;;;;4991694;28;20207;-68
2023/05/29 14:44:06;;;;;;;4.35;1.20;;;21.10;96.90;;;;;;4995356;28;20203;-70
2023/05/29 14:46:33;;;;;;;4.68;1.20;;;21.20;97.20;;;;;;4996414;28;20324;-68
2023/05/29 14:49:00;;;;;;;3.60;1.15;;;21.30;97.10;;;;;;4996135;28;20202;-71
2023/05/29 14:51:28;;;;;;;1.95;0.73;;;21.30;96.80;;;;;;4994826;28;20226;-68
2023/05/29 14:53:55;;;;;;;4.57;0.88;;;21.30;96.80;;;;;;4995730;28;20210;-70
2023/05/29 14:56:22;;;;;;;4.32;1.20;;;21.00;97.00;;;;;;4996079;28;20249;-70
2023/05/29 14:58:49;;;;;;;3.13;1.00;;;21.10;97.00;;;;;;4995871;28;20202;-71
2023/05/29 15:01:16;;;;;;;2.33;0.90;;;21.30;96.80;;;;;;4995916;28;20708;-71
2023/05/29 15:03:43;;;;;;;3.58;1.02;;;21.20;96.30;;;;;;4995034;28;20224;-68
2023/05/29 15:06:11;;;;;;;4.20;1.40;;;21.20;96.50;;;;;;4995426;28;20570;-71
2023/05/29 15:08:41;;;;;;;3.78;1.00;;;21.10;96.60;;;;;;4995362;28;20234;-71
2023/05/29 15:11:09;;;;;;;4.95;1.38;;;21.20;96.80;;;;;;4995865;28;20284;-71
2023/05/29 15:13:36;;;;;;;3.72;0.95;;;21.10;96.40;;;;;;4994454;28;20711;-71
2023/05/29 15:16:03;;;;;;;2.72;1.05;;;21.20;96.50;;;;;;4995893;28;20211;-68
2023/05/29 15:18:30;;;;;;;3.72;1.10;;;21.00;96.70;;;;;;4995796;28;20206;-68
2023/05/29 15:20:57;;;;;;;3.03;1.08;;;21.00;97.00;;;;;;4995710;28;20256;-68
2023/05/29 15:23:25;;;;;;;3.05;0.80;;;21.00;97.20;;;;;;4980961;28;20306;-71
2023/05/29 15:25:54;;;;;;;2.47;0.85;;;21.10;96.90;;;;;;4976113;28;20697;-71
2023/05/29 15:28:21;;;;;;;2.65;0.82;;;21.00;97.20;;;;;;4976364;28;20214;-71
2023/05/29 15:30:48;;;;;;;6.25;1.25;;;21.20;96.90;;;;;;4979463;28;20222;-71
2023/05/29 15:33:15;;;;;;;3.40;0.90;;;21.00;96.90;;;;;;4995138;28;20230;-68
2023/05/29 15:35:42;;;;;;;2.67;1.15;;;20.90;96.30;;;;;;4995134;28;20206;-71
2023/05/29 15:38:09;;;;;;;3.33;1.02;;;20.80;96.40;;;;;;4995413;28;20305;-69
2023/05/29 15:40:36;;;;;;;3.95;0.80;;;20.80;96.50;;;;;;4994553;28;20226;-70
2023/05/29 15:43:04;;;;;;;3.28;1.20;;;20.80;97.00;;;;;;4995115;28;20262;-70
2023/05/29 15:45:31;;;;;;;2.97;0.90;;;20.80;96.80;;;;;;4994936;28;20697;-68
2023/05/29 15:47:58;;;;;;;1.63;0.90;;;20.80;96.10;;;;;;4994883;28;20318;-67
2023/05/29 15:50:25;;;;;;;2.88;1.00;;;20.60;96.50;;;;;;4994099;28;20237;-69
2023/05/29 15:52:52;;;;;;;2.28;0.90;;;20.70;96.70;;;;;;4994856;28;20640;-71
2023/05/29 15:55:19;;;;;;;3.13;1.10;;;20.80;96.60;;;;;;4993593;28;20711;-69
2023/05/29 15:57:47;;;;;;;4.72;1.20;;;20.90;95.80;;;;;;4994742;28;20289;-71
2023/05/29 16:00:16;;;;;;;3.72;1.10;;;20.60;96.40;;;;;;4993665;28;20666;-71
2023/05/29 16:02:43;;;;;;;5.13;1.40;;;20.40;96.30;;;;;;4993412;28;20660;-71
2023/05/29 16:05:10;;;;;;;4.57;1.13;;;20.20;96.70;;;;;;4993784;28;20726;-71
2023/05/29 16:07:37;;;;;;;4.90;0.88;;;20.10;97.30;;;;;;4994732;28;20293;-68
2023/05/29 16:10:05;;;;;;;6.45;1.00;;;20.20;97.20;;;;;;4994398;28;20229;-71
2023/05/29 16:12:32;;;;;;;5.90;1.13;;;20.40;96.60;;;;;;4993275;28;20206;-69
2023/05/29 16:14:59;;;;;;;3.60;0.82;;;20.60;96.90;;;;;;4994651;28;20212;-70
2023/05/29 16:17:27;;;;;;;5.88;1.10;;;20.70;96.20;;;;;;4994776;28;20213;-68
2023/05/29 16:19:55;;;;;;;4.50;0.73;;;20.50;96.10;;;;;;4994242;28;20226;-68
2023/05/29 16:22:22;;;;;;;2.95;1.00;;;20.30;96.10;;;;;;4993405;28;20222;-71
2023/05/29 16:24:49;;;;;;;4.18;1.30;;;20.10;96.00;;;;;;4993690;28;20222;-72
2023/05/29 16:27:16;;;;;;;3.88;0.90;;;20.00;96.60;;;;;;4994561;28;20210;-69
2023/05/29 16:29:43;;;;;;;2.70;1.20;;;19.90;96.70;;;;;;4994294;28;20227;-71
2023/05/29 16:32:10;;;;;;;2.65;0.80;;;19.70;96.40;;;;;;4994360;28;20210;-71
2023/05/29 16:34:39;;;;;;;4.25;1.30;;;19.60;96.20;;;;;;4994330;28;20203;-68
2023/05/29 16:37:08;;;;;;;5.82;1.17;;;19.60;95.60;;;;;;4988770;28;20214;-70
2023/05/29 16:39:35;;;;;;;2.80;0.90;;;19.50;94.60;;;;;;4994209;28;20321;-70
2023/05/29 16:42:02;;;;;;;2.55;0.80;;;19.60;94.20;;;;;;4991509;28;20687;-69
2023/05/29 16:44:29;;;;;;;2.40;0.77;;;19.50;93.70;;;;;;4974743;28;20211;-70
2023/05/29 16:46:55;;;;;;;4.18;0.93;;;19.50;94.00;;;;;;4985132;28;20234;-70
2023/05/29 16:49:23;;;;;;;3.38;1.02;;;19.40;94.20;;;;;;4993892;28;20211;-70
2023/05/29 16:51:51;;;;;;;2.30;1.07;;;19.50;94.20;;;;;;4993873;28;20641;-71
2023/05/29 16:54:17;;;;;;;4.30;0.80;;;19.40;94.40;;;;;;4990816;28;20199;-70
2023/05/29 16:56:44;;;;;;;2.50;0.77;;;19.40;94.30;;;;;;4971268;28;20678;-69
2023/05/29 16:59:11;;;;;;;4.43;1.00;;;19.30;94.70;;;;;;4973850;28;20676;-69
2023/05/29 17:01:38;;;;;;;2.37;0.93;;;19.10;94.30;;;;;;4973842;28;20679;-74
2023/05/29 17:04:07;;;;;;;4.77;1.10;;;19.00;93.20;;;;;;4972843;28;20302;-68
2023/05/29 17:06:34;;;;;;;8.90;1.10;;;18.90;93.60;;;;;;4980840;28;20565;-68
2023/05/29 17:09:03;;;;;;;3.10;0.97;;;19.00;93.40;;;;;;4992211;28;20301;-71
2023/05/29 17:11:30;;;;;;;1.47;0.73;;;19.00;93.90;;;;;;4991937;28;20226;-70
2023/05/29 17:13:57;;;;;;;5.03;0.90;;;18.90;93.00;;;;;;4991888;28;20626;-68
2023/05/29 17:16:23;;;;;;;2.13;0.87;;;18.90;93.10;;;;;;4992281;28;20210;-69
2023/05/29 17:18:50;;;;;;;6.03;1.17;;;19.00;93.40;;;;;;4991389;28;20208;-69
2023/05/29 17:21:17;;;;;;;1.33;0.70;;;19.00;93.30;;;;;;4992243;28;20230;-70
2023/05/29 17:23:44;;;;;;;7.17;0.97;;;18.80;93.60;;;;;;4991962;28;20206;-69
2023/05/29 17:26:13;;;;;;;2.80;1.20;;;18.90;94.00;;;;;;4991405;28;20305;-68
2023/05/29 17:28:40;;;;;;;3.10;0.90;;;19.10;94.30;;;;;;4993200;28;20209;-68
2023/05/29 17:31:07;;;;;;;2.97;1.00;;;19.10;93.90;;;;;;4986559;28;20237;-68
2023/05/29 17:33:34;;;;;;;4.83;0.90;;;19.00;94.40;;;;;;4975304;28;20657;-68
2023/05/29 17:36:01;;;;;;;3.23;1.10;;;19.00;94.10;;;;;;4993036;28;20293;-68
2023/05/29 17:38:28;;;;;;;4.03;1.37;;;19.00;94.40;;;;;;4993103;28;20301;-68
2023/05/29 17:40:54;;;;;;;5.33;1.13;;;19.00;93.90;;;;;;4992927;28;20226;-68
2023/05/29 17:43:23;;;;;;;2.77;0.93;;;19.10;93.80;;;;;;4993570;28;20211;-68
2023/05/29 17:45:52;;;;;;;4.47;1.07;;;19.10;94.10;;;;;;4993054;28;20644;-69
2023/05/29 17:48:19;;;;;;;2.90;1.00;;;19.00;94.40;;;;;;4993191;28;20217;-67
2023/05/29 17:50:46;;;;;;;8.07;1.10;;;18.90;94.50;;;;;;4993006;28;20226;-68
2023/05/29 17:53:13;;;;;;;3.23;0.93;;;18.90;94.30;;;;;;4992823;28;20297;-68
2023/05/29 17:55:40;;;;;;;2.70;0.80;;;18.90;94.20;;;;;;4992896;28;20214;-69
2023/05/29 17:58:07;;;;;;;7.30;1.30;;;18.90;94.40;;;;;;4992856;28;20206;-68
2023/05/29 18:00:37;;;;;;;8.33;1.20;;;18.90;94.20;;;;;;4993156;28;20249;-69
2023/05/29 18:03:04;;;;;;;4.07;1.13;;;18.80;94.20;;;;;;4992962;28;20210;-68
2023/05/29 18:05:31;;;;;;;6.77;1.10;;;18.80;94.40;;;;;;4992941;28;20575;-69
2023/05/29 18:07:58;;;;;;;4.43;1.07;;;18.70;94.50;;;;;;4992589;28;20213;-68
2023/05/29 18:10:25;;;;;;;3.80;1.60;;;18.60;94.70;;;;;;4993390;28;20313;-69
2023/05/29 18:12:52;;;;;;;3.93;0.83;;;18.50;95.00;;;;;;4978820;28;20195;-68
2023/05/29 18:15:19;;;;;;;3.50;1.33;;;18.50;94.70;;;;;;4973623;28;20214;-68
2023/05/29 18:17:48;;;;;;;4.93;1.83;;;18.50;94.50;;;;;;4990597;28;20724;-68
2023/05/29 18:20:16;;;;;;;2.60;1.00;;;18.60;94.30;;;;;;4992082;28;20309;-68
2023/05/29 18:22:43;;;;;;;5.93;1.30;;;18.50;94.20;;;;;;4992591;28;20679;-69
2023/05/29 18:25:10;;;;;;;6.40;1.20;;;18.50;94.10;;;;;;4992692;28;20707;-69
2023/05/29 18:27:37;;;;;;;2.50;0.83;;;18.30;94.30;;;;;;4995085;28;20538;-69
2023/05/29 18:30:04;;;;;;;6.53;1.57;;;18.20;94.50;;;;;;4996464;28;20277;-69
2023/05/29 18:32:35;;;;;;;3.57;1.10;;;18.20;94.40;;;;;;4996304;28;20214;-69
2023/05/29 18:35:03;;;;;;;3.70;1.10;;;18.30;94.60;;;;;;4995736;28;20214;-69
2023/05/29 18:37:30;;;;;;;4.53;1.00;;;18.40;94.50;;;;;;4996038;28;20253;-68
2023/05/29 18:39:58;;;;;;;4.93;1.30;;;18.40;94.00;;;;;;5001160;28;20249;-71
2023/05/29 18:42:25;;;;;;;4.43;1.03;;;18.30;94.10;;;;;;5006533;28;20213;-71
2023/05/29 18:44:51;;;;;;;5.27;1.20;;;18.30;93.80;;;;;;4996111;28;20207;-71
2023/05/29 18:47:18;;;;;;;4.63;1.00;;;18.20;93.60;;;;;;4995838;28;20234;-70
2023/05/29 18:49:45;;;;;;;3.67;0.80;;;18.10;94.10;;;;;;4995719;28;20314;-71
2023/05/29 18:52:13;;;;;;;5.47;1.20;;;18.10;94.40;;;;;;4995164;28;20203;-71
2023/05/29 18:54:40;;;;;;;4.10;1.20;;;18.00;93.80;;;;;;4996383;28;20305;-71
2023/05/29 18:57:08;;;;;;;7.40;0.90;;;18.00;93.80;;;;;;4995550;28;20212;-71
2023/05/29 18:59:35;;;;;;;5.20;1.27;;;17.90;93.60;;;;;;4995106;28;20650;-70
2023/05/29 19:02:02;;;;;;;4.67;0.93;;;17.90;93.60;;;;;;4996042;28;20221;-70
2023/05/29 19:04:29;;;;;;;3.77;0.97;;;17.80;93.60;;;;;;4996048;28;20649;-71
2023/05/29 19:06:56;;;;;;;2.67;1.10;;;17.80;93.70;;;;;;4996084;28;20242;-69
2023/05/29 19:09:25;;;;;;;3.37;0.70;;;17.70;93.70;;;;;;4995883;28;20572;-69
2023/05/29 19:11:52;;;;;;;2.80;1.00;;;17.70;93.80;;;;;;4995821;28;20535;-70
2023/05/29 19:14:19;;;;;;;3.73;0.80;;;17.60;94.00;;;;;;4995962;28;20221;-69
2023/05/29 19:16:46;;;;;;;4.20;1.07;;;17.50;94.20;;;;;;4995924;28;20220;-69
2023/05/29 19:19:12;;;;;;;5.27;0.90;;;17.40;94.10;;;;;;4996087;28;20210;-70
2023/05/29 19:21:39;;;;;;;3.30;0.90;;;17.50;93.90;;;;;;4995907;28;20206;-69
2023/05/29 19:24:07;;;;;;;3.30;0.80;;;17.60;93.80;;;;;;4995619;28;20612;-70
2023/05/29 19:26:36;;;;;;;3.17;0.90;;;17.60;93.90;;;;;;4995684;28;20226;-70
2023/05/29 19:29:03;;;;;;;5.40;1.10;;;17.40;94.20;;;;;;4995616;28;20206;-70
2023/05/29 19:31:30;;;;;;;5.33;1.20;;;17.20;94.30;;;;;;4995438;28;20220;-70
2023/05/29 19:33:56;;;;;;;1.77;0.80;;;17.40;94.10;;;;;;4995702;28;20222;-69
2023/05/29 19:36:23;;;;;;;7.03;1.10;;;17.50;94.10;;;;;;4995733;28;20211;-69
2023/05/29 19:38:51;;;;;;;5.57;1.00;;;17.30;94.30;;;;;;4995166;28;20210;-69
2023/05/29 19:41:18;;;;;;;3.97;0.80;;;17.20;94.40;;;;;;4995348;28;20227;-68
2023/05/29 19:43:46;;;;;;;3.57;0.83;;;17.10;94.50;;;;;;4995284;28;20207;-68
2023/05/29 19:46:13;;;;;;;4.37;1.00;;;17.10;94.60;;;;;;4995513;28;20336;-69
2023/05/29 19:48:40;;;;;;;3.43;1.00;;;16.90;94.70;;;;;;4995353;28;20305;-69
2023/05/29 19:51:08;;;;;;;3.23;1.07;;;16.90;94.90;;;;;;4995525;28;20317;-69
2023/05/29 19:53:36;;;;;;;4.13;0.90;;;16.90;94.90;;;;;;4995183;28;20672;-68
2023/05/29 19:56:03;;;;;;;1.93;0.80;;;16.60;95.00;;;;;;4995131;28;20666;-69
2023/05/29 19:58:30;;;;;;;5.50;0.90;;;16.40;95.30;;;;;;4995177;28;20212;-69
2023/05/29 20:00:58;;;;;;;3.40;0.90;;;16.40;95.50;;;;;;4995301;28;20230;-69
2023/05/29 20:03:29;;;;;;;3.27;0.67;;;16.50;95.40;;;;;;4995276;28;20216;-69
2023/05/29 20:05:56;;;;;;;4.97;1.10;;;16.60;95.30;;;;;;4994905;28;20213;-70
2023/05/29 20:08:23;;;;;;;1.73;1.00;;;16.50;95.50;;;;;;4994867;28;20632;-69
2023/05/29 20:10:49;;;;;;;4.93;0.90;;;16.40;95.70;;;;;;4994719;28;20223;-69
2023/05/29 20:13:16;;;;;;;4.50;1.03;;;16.40;96.00;;;;;;4994939;28;20206;-69
2023/05/29 20:15:43;;;;;;;5.93;1.20;;;16.50;96.30;;;;;;4994935;28;20209;-70
2023/05/29 20:18:11;;;;;;;4.43;1.00;;;16.30;96.90;;;;;;4995069;28;20716;-68
2023/05/29 20:20:38;;;;;;;5.50;0.93;;;16.30;97.30;;;;;;4994547;28;20222;-68
2023/05/29 20:23:05;;;;;;;6.30;1.43;;;16.20;97.60;;;;;;4994844;28;20570;-68
2023/05/29 20:25:32;;;;;;;7.03;1.20;;;16.20;97.90;;;;;;4994645;28;20215;-69
2023/05/29 20:27:59;;;;;;;4.93;1.27;;;16.20;98.00;;;;;;4994662;28;20230;-70
2023/05/29 20:30:26;;;;;;;3.30;1.10;;;15.90;98.50;;;;;;4994847;28;20653;-68
2023/05/29 20:32:53;;;;;;;2.50;1.10;;;15.80;98.70;;;;;;4994401;28;20254;-70
2023/05/29 20:35:21;;;;;;;3.37;0.80;;;15.80;98.70;;;;;;4994419;28;20691;-69
2023/05/29 20:37:51;;;;;;;5.07;1.40;;;15.60;98.90;;;;;;4994405;28;20669;-68
2023/05/29 20:40:19;;;;;;;3.03;0.90;;;15.60;99.00;;;;;;4994250;28;20274;-69
2023/05/29 20:42:46;;;;;;;7.37;1.40;;;15.40;99.00;;;;;;4994526;28;20238;-69
2023/05/29 20:45:14;;;;;;;3.67;1.00;;;15.40;99.10;;;;;;4994593;28;20202;-68
2023/05/29 20:47:42;;;;;;;3.57;0.90;;;15.30;99.20;;;;;;4994420;28;20231;-68
2023/05/29 20:50:11;;;;;;;7.73;1.70;;;15.30;99.10;;;;;;4993576;28;20229;-68
2023/05/29 20:52:39;;;;;;;5.83;1.07;;;15.40;99.00;;;;;;4994156;28;20210;-68
2023/05/29 20:55:07;;;;;;;5.30;0.77;;;15.60;98.80;;;;;;4994409;28;20210;-69
2023/05/29 20:57:34;;;;;;;5.20;1.07;;;15.60;99.20;;;;;;4994069;28;20206;-68
2023/05/29 21:00:00;;;;;;;3.30;1.03;;;15.50;99.80;;;;;;4994029;28;20222;-68
2023/05/29 21:02:27;;;;;;;3.77;0.90;;;15.50;99.90;;;;;;4994147;28;20687;-68
2023/05/29 21:04:54;;;;;;;4.10;1.37;;;15.40;99.90;;;;;;4994300;28;20217;-69
2023/05/29 21:07:21;;;;;;;4.90;1.00;;;15.30;99.90;;;;;;4994214;28;20708;-69
2023/05/29 21:09:50;;;;;;;2.33;0.73;;;15.30;99.90;;;;;;4994205;28;20226;-68
2023/05/29 21:12:16;;;;;;;7.03;1.20;;;15.40;99.90;;;;;;4993772;28;20214;-68
2023/05/29 21:14:43;;;;;;;2.57;1.00;;;15.20;99.90;;;;;;4993915;28;20210;-68
2023/05/29 21:17:10;;;;;;;7.93;1.20;;;15.30;99.90;;;;;;4994255;28;20206;-68
2023/05/29 21:19:38;;;;;;;3.77;1.07;;;15.20;99.90;;;;;;4994299;28;20304;-68
2023/05/29 21:22:05;;;;;;;3.43;0.90;;;15.10;99.90;;;;;;4994106;28;20633;-68
2023/05/29 21:24:32;;;;;;;4.57;0.80;;;14.90;99.90;;;;;;4993812;28;20252;-69
2023/05/29 21:27:01;;;;;;;4.57;0.93;;;14.90;99.90;;;;;;4993791;28;20241;-69
2023/05/29 21:29:28;;;;;;;7.37;1.23;;;14.80;99.90;;;;;;4993820;28;20375;-69
2023/05/29 21:31:56;;;;;;;4.60;1.30;;;14.60;99.90;;;;;;4993678;28;20653;-69
2023/05/29 21:34:24;;;;;;;4.03;1.00;;;14.60;99.90;;;;;;4993458;28;20284;-69
2023/05/29 21:36:51;;;;;;;8.07;0.97;;;14.50;99.90;;;;;;4993860;28;20206;-69
